sensor_id;sensor_type;location;lat;lon;timestamp;pressure;altitude;pressure_sealevel;temperature;humidity
70758;BME280;59316;52.964;7.102;2022-10-22T00:02:06;100868.88;;;9.98;nan
70758;BME280;59316;52.964;7.102;2022-10-22T00:07:09;100875.56;;;9.89;nan
70758;BME280;59316;52.964;7.102;2022-10-22T00:12:13;100873.81;;;9.75;nan
70758;BME280;59316;52.964;7.102;2022-10-22T00:17:15;100878.88;;;9.78;nan
70758;BME280;59316;52.964;7.102;2022-10-22T00:22:17;100894.56;;;9.65;nan
70758;BME280;59316;52.964;7.102;2022-10-22T00:27:20;100894.44;;;9.67;nan
70758;BME280;59316;52.964;7.102;2022-10-22T00:32:22;100902.78;;;9.59;nan
70758;BME280;59316;52.964;7.102;2022-10-22T00:37:24;100898.00;;;9.66;nan
70758;BME280;59316;52.964;7.102;2022-10-22T00:42:27;100912.78;;;9.67;nan
70758;BME280;59316;52.964;7.102;2022-10-22T00:47:31;100917.72;;;9.72;nan
70758;BME280;59316;52.964;7.102;2022-10-22T00:52:34;100915.75;;;9.75;nan
70758;BME280;59316;52.964;7.102;2022-10-22T00:57:36;100910.31;;;9.78;nan
70758;BME280;59316;52.964;7.102;2022-10-22T01:02:39;100919.72;;;9.68;nan
70758;BME280;59316;52.964;7.102;2022-10-22T01:07:51;100915.34;;;9.54;nan
70758;BME280;59316;52.964;7.102;2022-10-22T01:18:47;100919.72;;;9.54;nan
70758;BME280;59316;52.964;7.102;2022-10-22T01:29:11;100911.44;;;9.74;nan
70758;BME280;59316;52.964;7.102;2022-10-22T01:34:16;100922.47;;;9.79;nan
70758;BME280;59316;52.964;7.102;2022-10-22T01:39:20;100919.28;;;9.74;nan
70758;BME280;59316;52.964;7.102;2022-10-22T01:49:54;100909.84;;;9.86;nan
70758;BME280;59316;52.964;7.102;2022-10-22T02:00:26;100910.00;;;9.83;nan
70758;BME280;59316;52.964;7.102;2022-10-22T02:05:39;100915.25;;;9.83;nan
70758;BME280;59316;52.964;7.102;2022-10-22T02:10:46;100922.94;;;9.72;nan
70758;BME280;59316;52.964;7.102;2022-10-22T02:15:51;100930.84;;;9.57;nan
70758;BME280;59316;52.964;7.102;2022-10-22T02:20:53;100923.47;;;9.49;nan
70758;BME280;59316;52.964;7.102;2022-10-22T02:26:18;100917.94;;;9.54;nan
70758;BME280;59316;52.964;7.102;2022-10-22T02:31:26;100926.44;;;9.58;nan
70758;BME280;59316;52.964;7.102;2022-10-22T02:36:30;100917.47;;;9.62;nan
70758;BME280;59316;52.964;7.102;2022-10-22T02:41:33;100905.97;;;9.64;nan
70758;BME280;59316;52.964;7.102;2022-10-22T02:46:37;100909.06;;;9.57;nan
70758;BME280;59316;52.964;7.102;2022-10-22T02:51:40;100906.19;;;9.74;nan
70758;BME280;59316;52.964;7.102;2022-10-22T02:56:42;100915.31;;;9.68;nan
70758;BME280;59316;52.964;7.102;2022-10-22T03:01:44;100921.91;;;9.74;nan
70758;BME280;59316;52.964;7.102;2022-10-22T03:06:46;100932.59;;;9.71;nan
70758;BME280;59316;52.964;7.102;2022-10-22T03:11:48;100918.31;;;9.62;nan
70758;BME280;59316;52.964;7.102;2022-10-22T03:16:51;100924.78;;;9.57;nan
70758;BME280;59316;52.964;7.102;2022-10-22T03:22:01;100921.75;;;9.63;nan
70758;BME280;59316;52.964;7.102;2022-10-22T03:27:03;100914.53;;;9.66;nan
70758;BME280;59316;52.964;7.102;2022-10-22T03:32:06;100919.44;;;9.58;nan
70758;BME280;59316;52.964;7.102;2022-10-22T03:37:08;100909.91;;;9.43;nan
70758;BME280;59316;52.964;7.102;2022-10-22T03:42:10;100921.22;;;9.43;nan
70758;BME280;59316;52.964;7.102;2022-10-22T03:47:13;100927.03;;;9.34;nan
70758;BME280;59316;52.964;7.102;2022-10-22T03:52:15;100937.06;;;9.27;nan
70758;BME280;59316;52.964;7.102;2022-10-22T03:57:17;100939.31;;;9.33;nan
70758;BME280;59316;52.964;7.102;2022-10-22T04:02:20;100941.91;;;9.33;nan
70758;BME280;59316;52.964;7.102;2022-10-22T04:07:22;100940.22;;;9.18;nan
70758;BME280;59316;52.964;7.102;2022-10-22T04:12:24;100950.41;;;9.08;nan
70758;BME280;59316;52.964;7.102;2022-10-22T04:17:33;100950.78;;;9.02;nan
70758;BME280;59316;52.964;7.102;2022-10-22T04:22:35;100943.53;;;8.91;nan
70758;BME280;59316;52.964;7.102;2022-10-22T04:27:38;100948.88;;;8.90;nan
70758;BME280;59316;52.964;7.102;2022-10-22T04:32:40;100955.22;;;8.85;nan
70758;BME280;59316;52.964;7.102;2022-10-22T04:37:42;100951.50;;;8.90;nan
70758;BME280;59316;52.964;7.102;2022-10-22T04:42:45;100950.47;;;8.92;nan
70758;BME280;59316;52.964;7.102;2022-10-22T04:47:47;100941.88;;;8.90;nan
70758;BME280;59316;52.964;7.102;2022-10-22T04:52:49;100955.91;;;8.89;nan
70758;BME280;59316;52.964;7.102;2022-10-22T04:57:51;100954.00;;;8.77;nan
70758;BME280;59316;52.964;7.102;2022-10-22T05:02:54;100954.88;;;8.92;nan
70758;BME280;59316;52.964;7.102;2022-10-22T05:07:56;100954.66;;;8.80;nan
70758;BME280;59316;52.964;7.102;2022-10-22T05:12:58;100955.59;;;8.94;nan
70758;BME280;59316;52.964;7.102;2022-10-22T05:18:00;100951.22;;;8.94;nan
70758;BME280;59316;52.964;7.102;2022-10-22T05:23:03;100951.50;;;8.90;nan
70758;BME280;59316;52.964;7.102;2022-10-22T05:28:05;100955.56;;;9.10;nan
70758;BME280;59316;52.964;7.102;2022-10-22T05:33:07;100954.41;;;9.14;nan
70758;BME280;59316;52.964;7.102;2022-10-22T05:38:09;100956.00;;;9.16;nan
70758;BME280;59316;52.964;7.102;2022-10-22T05:43:12;100956.31;;;9.12;nan
70758;BME280;59316;52.964;7.102;2022-10-22T05:48:14;100962.28;;;9.14;nan
70758;BME280;59316;52.964;7.102;2022-10-22T05:53:17;100966.22;;;9.21;nan
70758;BME280;59316;52.964;7.102;2022-10-22T05:58:19;100972.28;;;9.22;nan
70758;BME280;59316;52.964;7.102;2022-10-22T06:03:21;100977.50;;;9.07;nan
70758;BME280;59316;52.964;7.102;2022-10-22T06:08:24;100979.94;;;9.10;nan
70758;BME280;59316;52.964;7.102;2022-10-22T06:13:26;100979.16;;;8.94;nan
70758;BME280;59316;52.964;7.102;2022-10-22T06:18:28;100979.47;;;9.04;nan
70758;BME280;59316;52.964;7.102;2022-10-22T06:23:30;100976.50;;;9.24;nan
70758;BME280;59316;52.964;7.102;2022-10-22T06:28:33;100981.25;;;9.32;nan
70758;BME280;59316;52.964;7.102;2022-10-22T06:33:36;100986.53;;;9.46;nan
70758;BME280;59316;52.964;7.102;2022-10-22T06:38:39;100995.75;;;9.66;nan
70758;BME280;59316;52.964;7.102;2022-10-22T06:43:42;100990.59;;;9.94;nan
70758;BME280;59316;52.964;7.102;2022-10-22T06:48:50;101003.81;;;10.20;nan
70758;BME280;59316;52.964;7.102;2022-10-22T06:53:53;100998.63;;;10.32;nan
70758;BME280;59316;52.964;7.102;2022-10-22T06:58:57;101003.53;;;10.52;nan
70758;BME280;59316;52.964;7.102;2022-10-22T07:04:00;101018.16;;;10.69;nan
70758;BME280;59316;52.964;7.102;2022-10-22T07:09:02;101008.75;;;10.79;nan
70758;BME280;59316;52.964;7.102;2022-10-22T07:14:05;101023.78;;;10.90;nan
70758;BME280;59316;52.964;7.102;2022-10-22T07:19:08;101029.25;;;10.99;nan
70758;BME280;59316;52.964;7.102;2022-10-22T07:24:10;101032.66;;;11.27;nan
70758;BME280;59316;52.964;7.102;2022-10-22T07:29:12;101032.13;;;11.48;nan
70758;BME280;59316;52.964;7.102;2022-10-22T07:34:14;101053.13;;;11.74;nan
70758;BME280;59316;52.964;7.102;2022-10-22T07:39:17;101051.63;;;11.95;nan
70758;BME280;59316;52.964;7.102;2022-10-22T07:44:19;101054.22;;;12.21;nan
70758;BME280;59316;52.964;7.102;2022-10-22T07:49:21;101065.94;;;12.41;nan
70758;BME280;59316;52.964;7.102;2022-10-22T07:54:24;101069.41;;;12.66;nan
70758;BME280;59316;52.964;7.102;2022-10-22T07:59:26;101063.16;;;12.80;nan
70758;BME280;59316;52.964;7.102;2022-10-22T08:04:28;101079.94;;;13.02;nan
70758;BME280;59316;52.964;7.102;2022-10-22T08:09:31;101075.13;;;13.20;nan
70758;BME280;59316;52.964;7.102;2022-10-22T08:14:33;101078.22;;;13.14;nan
70758;BME280;59316;52.964;7.102;2022-10-22T08:19:35;101083.53;;;13.36;nan
70758;BME280;59316;52.964;7.102;2022-10-22T08:24:38;101089.69;;;13.48;nan
70758;BME280;59316;52.964;7.102;2022-10-22T08:29:40;101096.31;;;13.65;nan
70758;BME280;59316;52.964;7.102;2022-10-22T08:34:42;101107.69;;;13.77;nan
70758;BME280;59316;52.964;7.102;2022-10-22T08:39:44;101102.31;;;13.79;nan
70758;BME280;59316;52.964;7.102;2022-10-22T08:49:59;101116.78;;;13.73;nan
70758;BME280;59316;52.964;7.102;2022-10-22T08:55:02;101112.16;;;13.88;nan
70758;BME280;59316;52.964;7.102;2022-10-22T09:05:52;101110.66;;;14.29;nan
70758;BME280;59316;52.964;7.102;2022-10-22T09:11:05;101121.47;;;14.26;nan
70758;BME280;59316;52.964;7.102;2022-10-22T09:21:32;101126.38;;;14.86;nan
70758;BME280;59316;52.964;7.102;2022-10-22T09:26:40;101119.06;;;15.22;nan
70758;BME280;59316;52.964;7.102;2022-10-22T09:31:43;101116.34;;;15.33;nan
70758;BME280;59316;52.964;7.102;2022-10-22T09:37:18;101118.00;;;15.34;nan
70758;BME280;59316;52.964;7.102;2022-10-22T09:42:25;101128.97;;;15.51;nan
70758;BME280;59316;52.964;7.102;2022-10-22T09:47:43;101128.25;;;15.91;nan
70758;BME280;59316;52.964;7.102;2022-10-22T09:53:21;101129.81;;;16.44;nan
70758;BME280;59316;52.964;7.102;2022-10-22T09:58:27;101137.47;;;16.37;nan
70758;BME280;59316;52.964;7.102;2022-10-22T10:03:31;101143.03;;;16.44;nan
70758;BME280;59316;52.964;7.102;2022-10-22T10:08:33;101155.78;;;16.60;nan
70758;BME280;59316;52.964;7.102;2022-10-22T10:19:33;101163.81;;;16.08;nan
70758;BME280;59316;52.964;7.102;2022-10-22T10:30:18;101191.31;;;15.53;nan
70758;BME280;59316;52.964;7.102;2022-10-22T10:40:48;101193.00;;;15.33;nan
70758;BME280;59316;52.964;7.102;2022-10-22T10:56:39;101214.16;;;15.33;nan
70758;BME280;59316;52.964;7.102;2022-10-22T11:01:58;101215.63;;;15.26;nan
70758;BME280;59316;52.964;7.102;2022-10-22T11:07:07;101215.34;;;15.29;nan
70758;BME280;59316;52.964;7.102;2022-10-22T11:12:17;101211.78;;;15.19;nan
70758;BME280;59316;52.964;7.102;2022-10-22T11:17:23;101216.53;;;15.36;nan
70758;BME280;59316;52.964;7.102;2022-10-22T11:22:33;101211.22;;;15.90;nan
70758;BME280;59316;52.964;7.102;2022-10-22T11:33:10;101216.59;;;16.31;nan
70758;BME280;59316;52.964;7.102;2022-10-22T11:38:21;101224.19;;;16.14;nan
70758;BME280;59316;52.964;7.102;2022-10-22T11:54:37;101250.44;;;15.31;nan
70758;BME280;59316;52.964;7.102;2022-10-22T12:04:48;101243.69;;;14.95;nan
70758;BME280;59316;52.964;7.102;2022-10-22T12:09:51;101251.63;;;14.83;nan
70758;BME280;59316;52.964;7.102;2022-10-22T12:14:58;101246.56;;;15.03;nan
70758;BME280;59316;52.964;7.102;2022-10-22T12:20:11;101250.66;;;14.96;nan
70758;BME280;59316;52.964;7.102;2022-10-22T12:25:25;101248.47;;;15.01;nan
70758;BME280;59316;52.964;7.102;2022-10-22T12:30:35;101248.31;;;15.14;nan
70758;BME280;59316;52.964;7.102;2022-10-22T12:35:43;101213.53;;;15.41;nan
70758;BME280;59316;52.964;7.102;2022-10-22T12:40:46;101229.31;;;16.16;nan
70758;BME280;59316;52.964;7.102;2022-10-22T12:45:50;101223.63;;;16.92;nan
70758;BME280;59316;52.964;7.102;2022-10-22T12:50:56;101222.69;;;16.62;nan
70758;BME280;59316;52.964;7.102;2022-10-22T12:56:05;101226.31;;;16.71;nan
70758;BME280;59316;52.964;7.102;2022-10-22T13:01:12;101237.13;;;16.17;nan
70758;BME280;59316;52.964;7.102;2022-10-22T13:11:20;101228.66;;;15.93;nan
70758;BME280;59316;52.964;7.102;2022-10-22T13:16:24;101237.69;;;15.90;nan
70758;BME280;59316;52.964;7.102;2022-10-22T13:21:36;101239.38;;;15.91;nan
70758;BME280;59316;52.964;7.102;2022-10-22T13:26:39;101238.88;;;16.07;nan
70758;BME280;59316;52.964;7.102;2022-10-22T13:31:49;101235.50;;;15.95;nan
70758;BME280;59316;52.964;7.102;2022-10-22T13:36:52;101255.63;;;15.86;nan
70758;BME280;59316;52.964;7.102;2022-10-22T13:41:54;101245.19;;;15.85;nan
70758;BME280;59316;52.964;7.102;2022-10-22T13:46:57;101251.78;;;15.79;nan
70758;BME280;59316;52.964;7.102;2022-10-22T13:51:59;101250.41;;;15.96;nan
70758;BME280;59316;52.964;7.102;2022-10-22T13:57:07;101256.84;;;15.82;nan
70758;BME280;59316;52.964;7.102;2022-10-22T14:02:11;101282.88;;;15.66;nan
70758;BME280;59316;52.964;7.102;2022-10-22T14:07:14;101280.75;;;15.16;nan
70758;BME280;59316;52.964;7.102;2022-10-22T14:12:16;101290.28;;;14.84;nan
70758;BME280;59316;52.964;7.102;2022-10-22T14:17:20;101281.50;;;14.50;nan
70758;BME280;59316;52.964;7.102;2022-10-22T14:22:25;101290.75;;;14.55;nan
70758;BME280;59316;52.964;7.102;2022-10-22T14:27:28;101293.97;;;14.59;nan
70758;BME280;59316;52.964;7.102;2022-10-22T14:32:30;101290.50;;;14.47;nan
70758;BME280;59316;52.964;7.102;2022-10-22T14:37:32;101298.19;;;14.50;nan
70758;BME280;59316;52.964;7.102;2022-10-22T14:42:38;101299.25;;;14.59;nan
70758;BME280;59316;52.964;7.102;2022-10-22T14:47:42;101298.69;;;14.55;nan
70758;BME280;59316;52.964;7.102;2022-10-22T14:52:44;101305.75;;;14.32;nan
70758;BME280;59316;52.964;7.102;2022-10-22T14:57:46;101313.63;;;14.21;nan
70758;BME280;59316;52.964;7.102;2022-10-22T15:02:49;101315.88;;;14.14;nan
70758;BME280;59316;52.964;7.102;2022-10-22T15:07:51;101329.16;;;14.01;nan
70758;BME280;59316;52.964;7.102;2022-10-22T15:12:53;101326.31;;;14.04;nan
70758;BME280;59316;52.964;7.102;2022-10-22T15:17:56;101332.28;;;14.06;nan
70758;BME280;59316;52.964;7.102;2022-10-22T15:22:58;101329.28;;;14.00;nan
70758;BME280;59316;52.964;7.102;2022-10-22T15:28:00;101336.31;;;13.88;nan
70758;BME280;59316;52.964;7.102;2022-10-22T15:33:10;101352.41;;;13.72;nan
70758;BME280;59316;52.964;7.102;2022-10-22T15:38:12;101352.69;;;13.56;nan
70758;BME280;59316;52.964;7.102;2022-10-22T15:43:14;101360.31;;;13.48;nan
70758;BME280;59316;52.964;7.102;2022-10-22T15:48:17;101361.72;;;13.27;nan
70758;BME280;59316;52.964;7.102;2022-10-22T15:53:19;101371.47;;;13.01;nan
70758;BME280;59316;52.964;7.102;2022-10-22T15:58:21;101371.25;;;12.91;nan
70758;BME280;59316;52.964;7.102;2022-10-22T16:03:23;101382.44;;;12.82;nan
70758;BME280;59316;52.964;7.102;2022-10-22T16:08:26;101384.25;;;12.69;nan
70758;BME280;59316;52.964;7.102;2022-10-22T16:13:29;101407.91;;;12.56;nan
70758;BME280;59316;52.964;7.102;2022-10-22T16:18:31;101399.66;;;12.35;nan
70758;BME280;59316;52.964;7.102;2022-10-22T16:23:33;101401.09;;;12.13;nan
70758;BME280;59316;52.964;7.102;2022-10-22T16:28:36;101403.25;;;11.79;nan
70758;BME280;59316;52.964;7.102;2022-10-22T16:33:39;101407.34;;;11.56;nan
70758;BME280;59316;52.964;7.102;2022-10-22T16:38:58;101407.31;;;11.28;nan
70758;BME280;59316;52.964;7.102;2022-10-22T16:44:06;101419.41;;;11.17;nan
70758;BME280;59316;52.964;7.102;2022-10-22T16:49:12;101412.00;;;10.94;nan
70758;BME280;59316;52.964;7.102;2022-10-22T16:54:17;101421.16;;;10.73;nan
70758;BME280;59316;52.964;7.102;2022-10-22T16:59:20;101423.09;;;10.55;nan
70758;BME280;59316;52.964;7.102;2022-10-22T17:04:22;101426.25;;;10.45;nan
70758;BME280;59316;52.964;7.102;2022-10-22T17:09:24;101429.75;;;10.30;nan
70758;BME280;59316;52.964;7.102;2022-10-22T17:14:27;101431.34;;;10.16;nan
70758;BME280;59316;52.964;7.102;2022-10-22T17:19:29;101435.72;;;10.02;nan
70758;BME280;59316;52.964;7.102;2022-10-22T17:24:31;101447.38;;;9.96;nan
70758;BME280;59316;52.964;7.102;2022-10-22T17:29:35;101445.72;;;9.95;nan
70758;BME280;59316;52.964;7.102;2022-10-22T17:34:37;101445.50;;;9.82;nan
70758;BME280;59316;52.964;7.102;2022-10-22T17:39:40;101459.91;;;9.75;nan
70758;BME280;59316;52.964;7.102;2022-10-22T17:44:42;101459.97;;;9.57;nan
70758;BME280;59316;52.964;7.102;2022-10-22T17:49:44;101465.84;;;9.45;nan
70758;BME280;59316;52.964;7.102;2022-10-22T17:54:48;101470.63;;;9.54;nan
70758;BME280;59316;52.964;7.102;2022-10-22T17:59:50;101483.06;;;9.33;nan
70758;BME280;59316;52.964;7.102;2022-10-22T18:04:52;101487.63;;;9.29;nan
70758;BME280;59316;52.964;7.102;2022-10-22T18:09:55;101490.63;;;9.22;nan
70758;BME280;59316;52.964;7.102;2022-10-22T18:14:57;101490.59;;;9.06;nan
70758;BME280;59316;52.964;7.102;2022-10-22T18:19:59;101493.66;;;8.96;nan
70758;BME280;59316;52.964;7.102;2022-10-22T18:25:01;101483.75;;;8.85;nan
70758;BME280;59316;52.964;7.102;2022-10-22T18:30:04;101489.06;;;8.84;nan
70758;BME280;59316;52.964;7.102;2022-10-22T18:35:07;101495.00;;;8.70;nan
70758;BME280;59316;52.964;7.102;2022-10-22T18:40:09;101496.16;;;8.82;nan
70758;BME280;59316;52.964;7.102;2022-10-22T18:45:15;101499.22;;;8.73;nan
70758;BME280;59316;52.964;7.102;2022-10-22T18:50:18;101511.22;;;8.77;nan
70758;BME280;59316;52.964;7.102;2022-10-22T18:55:20;101503.06;;;8.65;nan
70758;BME280;59316;52.964;7.102;2022-10-22T19:00:22;101508.47;;;8.62;nan
70758;BME280;59316;52.964;7.102;2022-10-22T19:05:24;101516.75;;;8.71;nan
70758;BME280;59316;52.964;7.102;2022-10-22T19:10:27;101520.22;;;8.53;nan
70758;BME280;59316;52.964;7.102;2022-10-22T19:15:29;101518.13;;;8.60;nan
70758;BME280;59316;52.964;7.102;2022-10-22T19:20:31;101507.06;;;8.36;nan
70758;BME280;59316;52.964;7.102;2022-10-22T19:25:34;101514.72;;;8.22;nan
70758;BME280;59316;52.964;7.102;2022-10-22T19:30:39;101502.31;;;8.08;nan
70758;BME280;59316;52.964;7.102;2022-10-22T19:35:41;101507.19;;;7.96;nan
70758;BME280;59316;52.964;7.102;2022-10-22T19:40:44;101508.47;;;7.87;nan
70758;BME280;59316;52.964;7.102;2022-10-22T19:45:47;101522.59;;;8.02;nan
70758;BME280;59316;52.964;7.102;2022-10-22T19:50:50;101526.81;;;7.86;nan
70758;BME280;59316;52.964;7.102;2022-10-22T19:55:58;101524.47;;;7.80;nan
70758;BME280;59316;52.964;7.102;2022-10-22T20:01:05;101526.47;;;7.75;nan
70758;BME280;59316;52.964;7.102;2022-10-22T20:06:09;101528.44;;;7.69;nan
70758;BME280;59316;52.964;7.102;2022-10-22T20:11:18;101523.28;;;7.68;nan
70758;BME280;59316;52.964;7.102;2022-10-22T20:16:22;101534.88;;;7.62;nan
70758;BME280;59316;52.964;7.102;2022-10-22T20:21:25;101535.50;;;7.67;nan
70758;BME280;59316;52.964;7.102;2022-10-22T20:26:28;101531.56;;;7.78;nan
70758;BME280;59316;52.964;7.102;2022-10-22T20:31:30;101534.66;;;7.86;nan
70758;BME280;59316;52.964;7.102;2022-10-22T20:36:32;101534.72;;;7.84;nan
70758;BME280;59316;52.964;7.102;2022-10-22T20:41:35;101534.19;;;7.97;nan
70758;BME280;59316;52.964;7.102;2022-10-22T20:46:38;101523.78;;;7.95;nan
70758;BME280;59316;52.964;7.102;2022-10-22T20:51:40;101527.38;;;7.93;nan
70758;BME280;59316;52.964;7.102;2022-10-22T20:56:43;101517.44;;;8.01;nan
70758;BME280;59316;52.964;7.102;2022-10-22T21:01:48;101522.84;;;8.34;nan
70758;BME280;59316;52.964;7.102;2022-10-22T21:06:50;101526.78;;;8.43;nan
70758;BME280;59316;52.964;7.102;2022-10-22T21:11:53;101524.81;;;8.48;nan
70758;BME280;59316;52.964;7.102;2022-10-22T21:17:00;101516.53;;;8.39;nan
70758;BME280;59316;52.964;7.102;2022-10-22T21:22:02;101511.00;;;8.45;nan
70758;BME280;59316;52.964;7.102;2022-10-22T21:27:04;101522.13;;;8.50;nan
70758;BME280;59316;52.964;7.102;2022-10-22T21:32:06;101519.59;;;8.48;nan
70758;BME280;59316;52.964;7.102;2022-10-22T21:37:09;101519.31;;;8.35;nan
70758;BME280;59316;52.964;7.102;2022-10-22T21:42:14;101522.22;;;8.29;nan
70758;BME280;59316;52.964;7.102;2022-10-22T21:47:16;101526.38;;;8.14;nan
70758;BME280;59316;52.964;7.102;2022-10-22T21:52:18;101526.75;;;8.07;nan
70758;BME280;59316;52.964;7.102;2022-10-22T21:57:21;101527.03;;;8.00;nan
70758;BME280;59316;52.964;7.102;2022-10-22T22:02:23;101527.47;;;7.91;nan
70758;BME280;59316;52.964;7.102;2022-10-22T22:07:25;101536.44;;;7.85;nan
70758;BME280;59316;52.964;7.102;2022-10-22T22:12:27;101530.84;;;7.93;nan
70758;BME280;59316;52.964;7.102;2022-10-22T22:17:30;101520.41;;;7.93;nan
70758;BME280;59316;52.964;7.102;2022-10-22T22:22:32;101528.31;;;7.92;nan
70758;BME280;59316;52.964;7.102;2022-10-22T22:27:34;101535.66;;;7.83;nan
70758;BME280;59316;52.964;7.102;2022-10-22T22:32:36;101536.19;;;7.71;nan
70758;BME280;59316;52.964;7.102;2022-10-22T22:37:39;101532.31;;;7.80;nan
70758;BME280;59316;52.964;7.102;2022-10-22T22:42:41;101535.38;;;7.90;nan
70758;BME280;59316;52.964;7.102;2022-10-22T22:47:43;101532.59;;;8.12;nan
70758;BME280;59316;52.964;7.102;2022-10-22T22:52:46;101533.38;;;8.33;nan
70758;BME280;59316;52.964;7.102;2022-10-22T22:57:48;101525.94;;;8.43;nan
70758;BME280;59316;52.964;7.102;2022-10-22T23:02:54;101526.47;;;8.68;nan
70758;BME280;59316;52.964;7.102;2022-10-22T23:07:56;101527.16;;;8.72;nan
70758;BME280;59316;52.964;7.102;2022-10-22T23:12:59;101524.38;;;8.75;nan
70758;BME280;59316;52.964;7.102;2022-10-22T23:18:01;101533.31;;;8.71;nan
70758;BME280;59316;52.964;7.102;2022-10-22T23:23:03;101528.31;;;8.84;nan
70758;BME280;59316;52.964;7.102;2022-10-22T23:28:06;101524.00;;;9.00;nan
70758;BME280;59316;52.964;7.102;2022-10-22T23:33:08;101525.78;;;9.00;nan
70758;BME280;59316;52.964;7.102;2022-10-22T23:38:10;101523.94;;;9.02;nan
70758;BME280;59316;52.964;7.102;2022-10-22T23:43:13;101514.16;;;8.88;nan
70758;BME280;59316;52.964;7.102;2022-10-22T23:48:15;101514.75;;;8.76;nan
70758;BME280;59316;52.964;7.102;2022-10-22T23:53:17;101509.81;;;8.69;nan
70758;BME280;59316;52.964;7.102;2022-10-22T23:58:19;101498.53;;;8.69;nan
